Time;durP1;ratioP1;P1;durP2;ratioP2;P2;SDS_P1;SDS_P2;PMS_P1;PMS_P2;Temp;Humidity;BMP_temperature;BMP_pressure;BME280_temperature;BME280_humidity;BME280_pressure;Samples;Min_cycle;Max_cycle;Signal;HPM_P1;HPM_P2
2022/10/25 00:01:46;;;;;;;1.45;0.85;;;;;;;18.97;68.58;96874.44;10557128;28;20089;-29
2022/10/25 00:06:46;;;;;;;1.02;0.77;;;;;;;19.02;68.46;96872.75;10561511;28;20059;-30
2022/10/25 00:11:47;;;;;;;1.67;0.73;;;;;;;19.03;67.04;96879.50;10561709;28;20059;-30
2022/10/25 00:16:47;;;;;;;2.03;0.80;;;;;;;19.02;66.72;96877.81;10565055;28;20024;-30
2022/10/25 00:21:48;;;;;;;0.87;0.67;;;;;;;19.00;66.91;96869.38;10561004;28;20032;-30
2022/10/25 00:26:48;;;;;;;2.30;1.00;;;;;;;18.98;65.74;96876.97;10567091;28;20406;-30
2022/10/25 00:31:48;;;;;;;1.40;0.60;;;;;;;18.92;65.79;96860.91;10561683;28;20035;-29
2022/10/25 00:36:49;;;;;;;1.40;0.80;;;;;;;18.95;65.58;96865.97;10571934;28;20042;-30
2022/10/25 00:41:49;;;;;;;1.17;0.60;;;;;;;18.94;65.49;96874.44;10568749;28;20038;-30
2022/10/25 00:46:50;;;;;;;0.70;0.50;;;;;;;18.94;65.38;96880.38;10563641;28;20032;-30
2022/10/25 00:51:56;;;;;;;0.70;0.68;;;;;;;18.94;65.59;96879.50;10571613;28;20320;-31
2022/10/25 00:57:01;;;;;;;3.75;0.60;;;;;;;18.93;65.45;96882.91;10566767;28;20275;-29
2022/10/25 01:02:01;;;;;;;1.73;0.80;;;;;;;18.94;65.39;96874.44;10566920;28;20474;-30
2022/10/25 01:07:02;;;;;;;1.98;1.02;;;;;;;18.94;68.32;96879.50;10565425;28;20032;-30
2022/10/25 01:12:03;;;;;;;3.15;1.10;;;;;;;18.95;68.20;96871.06;10565365;28;20023;-29
2022/10/25 01:17:18;;;;;;;1.55;0.80;;;;;;;19.03;67.31;96879.50;10560621;28;20024;-29
2022/10/25 01:22:25;;;;;;;1.67;0.60;;;;;;;19.00;67.11;96871.91;10561696;28;20035;-29
2022/10/25 01:27:48;;;;;;;1.25;0.80;;;;;;;18.99;66.72;96882.91;10555668;28;20036;-30
2022/10/25 01:32:54;;;;;;;1.63;0.80;;;;;;;18.96;65.89;96875.28;10558443;28;20451;-29
2022/10/25 01:38:35;;;;;;;0.50;0.50;;;;;;;18.95;65.73;96877.00;10563115;28;20043;-30
2022/10/25 01:43:41;;;;;;;0.95;0.70;;;;;;;18.93;65.76;96873.56;10564412;28;20051;-29
2022/10/25 01:48:49;;;;;;;2.30;0.88;;;;;;;18.94;65.48;96874.44;10563332;28;20032;-30
2022/10/25 01:53:51;;;;;;;0.93;0.63;;;;;;;18.90;65.47;96871.06;10561495;28;20027;-30
2022/10/25 01:59:09;;;;;;;1.08;0.63;;;;;;;18.92;65.50;96869.34;10563555;28;20119;-30
2022/10/25 02:04:23;;;;;;;1.02;0.90;;;;;;;18.92;65.42;96871.88;10569028;28;20493;-29
2022/10/25 02:09:35;;;;;;;1.10;0.70;;;;;;;18.90;67.40;96870.19;10560199;28;20028;-30
2022/10/25 02:14:46;;;;;;;1.52;0.70;;;;;;;18.96;68.34;96857.50;10549102;28;20038;-31
2022/10/25 02:19:53;;;;;;;1.25;0.75;;;;;;;19.00;67.22;96871.91;10552901;28;20030;-30
2022/10/25 02:30:56;;;;;;;0.60;0.60;;;;;;;18.95;66.51;96866.84;10557419;28;20394;-30
2022/10/25 02:36:13;;;;;;;1.15;0.55;;;;;;;18.94;66.65;96864.28;10562930;28;20498;-30
2022/10/25 02:41:14;;;;;;;1.85;0.90;;;;;;;18.92;66.41;96876.13;10566829;28;20593;-30
2022/10/25 02:46:17;;;;;;;1.95;0.80;;;;;;;18.93;65.80;96862.59;10563106;28;20062;-30
2022/10/25 02:51:19;;;;;;;1.83;0.55;;;;;;;18.92;65.68;96860.91;10563312;28;20042;-30
2022/10/25 02:56:21;;;;;;;1.33;0.90;;;;;;;18.93;65.30;96867.69;10563947;28;20390;-30
2022/10/25 03:01:22;;;;;;;2.83;1.40;;;;;;;18.90;65.40;96858.38;10560425;28;20755;-30
2022/10/25 03:06:23;;;;;;;1.13;0.50;;;;;;;18.88;65.25;96859.19;10568271;28;20025;-30
2022/10/25 03:11:23;;;;;;;1.50;0.63;;;;;;;18.89;65.40;96853.28;10569166;28;20028;-30
2022/10/25 03:16:24;;;;;;;1.52;0.70;;;;;;;18.92;67.80;96856.66;10568648;28;20047;-29
2022/10/25 03:21:24;;;;;;;0.93;0.63;;;;;;;18.95;67.93;96863.44;10569875;28;20027;-30
2022/10/25 03:26:25;;;;;;;1.65;0.80;;;;;;;18.99;67.21;96865.97;10569211;28;20512;-29
2022/10/25 03:31:25;;;;;;;0.70;0.60;;;;;;;18.94;66.63;96854.13;10564970;28;20062;-31
2022/10/25 03:36:25;;;;;;;1.90;0.80;;;;;;;18.93;66.79;96863.44;10565632;28;20028;-31
2022/10/25 03:41:26;;;;;;;1.03;0.43;;;;;;;18.88;65.81;96859.19;10562068;28;20028;-30
2022/10/25 03:46:26;;;;;;;0.80;0.57;;;;;;;18.91;65.98;96872.75;10559757;28;20062;-30
2022/10/25 03:51:26;;;;;;;0.60;0.60;;;;;;;18.91;66.00;96879.53;10562000;28;20020;-29
2022/10/25 03:56:27;;;;;;;0.97;0.70;;;;;;;18.90;65.66;96878.66;10556762;28;20436;-29
2022/10/25 04:01:27;;;;;;;0.53;0.53;;;;;;;18.90;65.56;96877.78;10567319;28;20035;-29
2022/10/25 04:06:28;;;;;;;1.67;0.67;;;;;;;18.91;65.30;96884.59;10561543;28;20055;-30
2022/10/25 04:11:28;;;;;;;2.00;0.73;;;;;;;18.89;65.27;96871.91;10568042;28;20297;-30
2022/10/25 04:16:28;;;;;;;0.47;0.47;;;;;;;18.89;65.15;96883.72;10566965;28;20770;-29
2022/10/25 04:21:29;;;;;;;1.90;0.60;;;;;;;18.90;67.82;96878.66;10557096;28;20629;-29
2022/10/25 04:26:29;;;;;;;1.27;0.70;;;;;;;18.97;68.06;96884.56;10566429;27;20028;-29
2022/10/25 04:31:30;;;;;;;0.73;0.52;;;;;;;18.98;67.74;96883.72;10557425;28;20067;-29
2022/10/25 04:36:30;;;;;;;2.60;0.52;;;;;;;18.97;66.64;96880.38;10561017;28;20489;-30
2022/10/25 04:41:30;;;;;;;0.50;0.43;;;;;;;18.95;66.04;96886.28;10560470;28;20111;-29
2022/10/25 04:46:31;;;;;;;1.90;0.57;;;;;;;18.91;66.45;96889.66;10558283;28;20277;-30
2022/10/25 04:51:33;;;;;;;2.83;1.50;;;;;;;18.83;65.66;96886.28;10563626;28;20549;-29
2022/10/25 04:56:33;;;;;;;7.47;2.10;;;;;;;18.69;65.65;96875.25;10553395;28;20718;-30
2022/10/25 05:01:34;;;;;;;5.90;1.53;;;;;;;18.79;65.57;96879.50;10563554;28;20039;-29
2022/10/25 05:06:34;;;;;;;6.43;0.70;;;;;;;18.73;65.32;96879.47;10559673;28;20821;-30
2022/10/25 05:11:35;;;;;;;7.60;1.17;;;;;;;18.83;65.11;96886.28;10562625;28;20028;-30
2022/10/25 05:16:35;;;;;;;4.95;1.45;;;;;;;18.83;66.14;96883.75;10564626;28;20088;-30
2022/10/25 05:21:35;;;;;;;24.93;4.80;;;;;;;18.84;65.59;96891.31;10557818;28;20032;-30
2022/10/25 05:26:36;;;;;;;14.23;2.58;;;;;;;18.70;64.09;96882.88;10565169;28;20079;-29
2022/10/25 05:31:39;;;;;;;9.75;2.45;;;;;;;18.74;63.37;96891.34;10561311;28;20111;-30
2022/10/25 05:36:39;;;;;;;11.15;1.90;;;;;;;18.86;65.78;96896.41;10558950;28;20032;-30
2022/10/25 05:41:40;;;;;;;12.07;1.70;;;;;;;18.68;63.73;96898.94;10549222;28;20093;-28
2022/10/25 05:46:40;;;;;;;9.63;1.70;;;;;;;18.76;64.70;96893.00;10557761;28;20020;-30
2022/10/25 05:51:40;;;;;;;8.77;1.57;;;;;;;18.73;64.93;96889.63;10561408;28;20289;-29
2022/10/25 05:56:41;;;;;;;14.80;2.00;;;;;;;18.82;64.88;96909.94;10552720;28;20564;-30
2022/10/25 06:01:45;;;;;;;5.20;1.52;;;;;;;18.83;65.46;96901.50;10555921;28;20039;-30
2022/10/25 06:06:46;;;;;;;7.22;1.85;;;;;;;18.84;65.36;96903.19;10559325;28;20022;-30
2022/10/25 06:11:46;;;;;;;7.38;1.92;;;;;;;18.84;65.23;96903.19;10554074;28;20036;-29
2022/10/25 06:16:47;;;;;;;9.50;1.70;;;;;;;18.84;64.97;96909.09;10562669;28;20030;-29
2022/10/25 06:21:47;;;;;;;7.27;1.40;;;;;;;18.84;65.01;96901.47;10558588;28;20047;-29
2022/10/25 06:26:48;;;;;;;7.30;1.53;;;;;;;18.83;65.42;96909.09;10563718;28;20289;-31
2022/10/25 06:31:48;;;;;;;4.78;1.40;;;;;;;18.86;66.79;96911.63;10560990;28;20286;-29
2022/10/25 06:36:48;;;;;;;6.40;1.63;;;;;;;18.90;65.98;96928.53;10563494;28;20080;-29
2022/10/25 06:41:49;;;;;;;3.03;1.17;;;;;;;18.91;66.19;96932.78;10561018;28;20640;-30
2022/10/25 06:46:49;;;;;;;2.83;0.77;;;;;;;18.89;66.06;96931.91;10558669;28;20397;-30
2022/10/25 06:51:50;;;;;;;2.33;1.07;;;;;;;18.86;66.10;96935.31;10560169;28;20024;-30
2022/10/25 06:56:50;;;;;;;3.60;0.77;;;;;;;18.85;65.98;96937.84;10554037;28;20417;-30
2022/10/25 07:01:51;;;;;;;7.13;1.23;;;;;;;18.85;65.53;96940.38;10557979;28;20389;-30
2022/10/25 07:06:51;;;;;;;3.45;1.00;;;;;;;18.84;66.14;96944.59;10563322;28;20439;-29
2022/10/25 07:11:51;;;;;;;3.97;0.93;;;;;;;18.85;65.45;96945.47;10560040;28;20027;-30
2022/10/25 07:16:52;;;;;;;4.83;1.00;;;;;;;18.82;65.36;96950.53;10554280;28;20837;-29
2022/10/25 07:21:52;;;;;;;3.67;0.87;;;;;;;18.84;66.31;96946.31;10557995;28;20397;-29
2022/10/25 07:26:53;;;;;;;2.77;0.97;;;;;;;18.83;65.21;96958.13;10570931;28;20285;-30
2022/10/25 07:31:53;;;;;;;4.03;0.90;;;;;;;18.83;65.04;96962.38;10564558;28;20149;-31
2022/10/25 07:36:53;;;;;;;7.47;1.30;;;;;;;18.85;66.95;96960.69;10570601;28;20028;-30
2022/10/25 07:41:54;;;;;;;5.60;0.73;;;;;;;18.89;66.44;96967.44;10560093;28;20085;-29
2022/10/25 07:46:54;;;;;;;4.10;1.20;;;;;;;18.92;66.54;96963.22;10562484;28;20028;-30
2022/10/25 07:51:54;;;;;;;1.27;0.73;;;;;;;18.89;65.99;96962.38;10564878;28;20035;-29
2022/10/25 07:56:55;;;;;;;1.53;0.80;;;;;;;18.85;65.98;96955.59;10557235;28;20406;-30
2022/10/25 08:01:55;;;;;;;2.10;1.10;;;;;;;18.84;66.06;96966.59;10561386;28;20043;-29
2022/10/25 08:06:59;;;;;;;0.90;0.60;;;;;;;18.82;65.76;96960.69;10559015;28;20046;-30
2022/10/25 08:11:59;;;;;;;3.20;0.68;;;;;;;18.82;65.48;96955.63;10565427;28;20301;-30
2022/10/25 08:16:59;;;;;;;1.73;0.80;;;;;;;18.82;65.66;96956.44;10568002;28;20036;-30
2022/10/25 08:22:00;;;;;;;1.43;0.73;;;;;;;18.83;65.82;96947.16;10561097;28;20036;-30
2022/10/25 08:27:01;;;;;;;1.98;0.82;;;;;;;18.83;65.65;96947.16;10559909;28;20085;-30
2022/10/25 08:32:01;;;;;;;2.92;0.60;;;;;;;18.81;65.29;96936.13;10565396;28;20782;-30
2022/10/25 08:37:01;;;;;;;2.37;0.73;;;;;;;18.81;65.37;96943.75;10563734;28;20027;-29
2022/10/25 08:42:02;;;;;;;2.23;0.90;;;;;;;18.85;67.18;96950.53;10561782;28;20337;-30
2022/10/25 08:47:20;;;;;;;2.15;0.80;;;;;;;18.89;66.91;96947.16;10565265;28;20024;-30
2022/10/25 08:52:25;;;;;;;0.80;0.50;;;;;;;18.91;66.88;96940.41;10552399;28;20028;-30
2022/10/25 08:57:29;;;;;;;1.67;0.70;;;;;;;18.88;65.93;96948.00;10557750;28;20024;-31
2022/10/25 09:02:57;;;;;;;2.38;0.70;;;;;;;18.85;66.03;96945.47;10566486;28;20108;-29
2022/10/25 09:08:00;;;;;;;1.55;0.80;;;;;;;18.84;66.28;96949.66;10560824;28;20038;-30
2022/10/25 09:13:09;;;;;;;1.17;0.50;;;;;;;18.84;65.72;96948.84;10561835;28;20036;-31
2022/10/25 09:18:18;;;;;;;1.23;0.70;;;;;;;18.80;65.85;96939.53;10562275;28;20028;-30
2022/10/25 09:23:29;;;;;;;0.90;0.60;;;;;;;18.81;65.01;96949.69;10562285;28;20405;-31
2022/10/25 09:28:35;;;;;;;0.98;0.60;;;;;;;18.81;65.12;96944.59;10562708;28;20105;-30
2022/10/25 09:33:39;;;;;;;1.75;0.65;;;;;;;18.83;65.19;96944.63;10560282;28;20384;-30
2022/10/25 09:38:45;;;;;;;1.58;0.82;;;;;;;18.81;65.04;96948.81;10564059;28;20489;-30
2022/10/25 09:44:05;;;;;;;1.05;0.40;;;;;;;18.81;65.34;96944.59;10554107;28;20032;-30
2022/10/25 09:49:20;;;;;;;1.52;0.85;;;;;;;18.88;66.62;96945.47;10561446;28;20073;-29
2022/10/25 09:54:30;;;;;;;1.45;0.80;;;;;;;18.88;66.80;96942.91;10562120;28;20115;-30
2022/10/25 09:59:30;;;;;;;0.82;0.50;;;;;;;18.90;66.12;96934.47;10551006;28;20024;-29
2022/10/25 10:04:36;;;;;;;0.63;0.40;;;;;;;18.88;65.63;96945.47;10563842;28;20023;-29
2022/10/25 10:09:39;;;;;;;1.52;0.70;;;;;;;18.83;65.81;96934.47;10555379;28;20031;-29
2022/10/25 10:14:46;;;;;;;1.45;0.43;;;;;;;18.83;65.80;96934.47;10553243;28;20043;-29
2022/10/25 10:20:08;;;;;;;1.33;0.60;;;;;;;18.83;65.24;96939.53;10551074;28;20114;-29
2022/10/25 10:25:15;;;;;;;0.80;0.50;;;;;;;18.82;65.11;96942.94;10560407;28;20524;-30
2022/10/25 10:30:23;;;;;;;1.15;0.70;;;;;;;18.82;65.13;96940.41;10561453;28;20032;-29
2022/10/25 10:35:33;;;;;;;0.98;0.40;;;;;;;18.79;64.88;96935.28;10552120;28;20303;-30
2022/10/25 10:40:34;;;;;;;8.70;1.33;;;;;;;18.81;66.19;96929.38;10548210;28;20048;-29
2022/10/25 10:45:34;;;;;;;9.30;1.00;;;;;;;18.81;65.80;96923.44;10536551;28;20421;-30
2022/10/25 10:50:35;;;;;;;2.78;0.70;;;;;;;18.80;65.37;96924.28;10544976;28;20558;-29
2022/10/25 10:55:38;;;;;;;1.73;0.57;;;;;;;18.89;66.94;96911.63;10566940;28;20287;-29
2022/10/25 11:00:39;;;;;;;3.90;0.55;;;;;;;18.90;67.11;96905.72;10557569;28;20107;-29
2022/10/25 11:05:52;;;;;;;2.03;0.52;;;;;;;18.88;66.57;96895.56;10569844;28;20110;-29
2022/10/25 11:11:13;;;;;;;5.38;1.00;;;;;;;18.89;65.94;96906.56;10565668;28;20642;-30
2022/10/25 11:16:45;;;;;;;4.55;1.10;;;;;;;18.86;65.57;96906.56;10566610;28;20038;-30
2022/10/25 11:22:16;;;;;;;4.28;0.68;;;;;;;18.83;65.20;96897.25;10550285;28;20050;-31
2022/10/25 11:27:40;;;;;;;3.33;1.40;;;;;;;18.74;65.14;96883.72;10570858;28;20036;-29
2022/10/25 11:33:08;;;;;;;2.03;0.60;;;;;;;18.80;65.17;96896.41;10564854;28;20043;-30
2022/10/25 11:38:15;;;;;;;2.90;0.52;;;;;;;18.79;65.20;96894.72;10565629;28;20051;-31
2022/10/25 11:43:21;;;;;;;3.50;0.80;;;;;;;18.80;65.36;96891.31;10560790;28;20069;-30
2022/10/25 11:48:27;;;;;;;4.63;2.17;;;;;;;18.81;65.16;96887.94;10561818;28;20020;-30
2022/10/25 11:53:43;;;;;;;3.42;1.40;;;;;;;18.81;65.30;96880.34;10559273;28;20430;-29
2022/10/25 11:58:52;;;;;;;9.48;1.60;;;;;;;18.83;67.30;96876.13;10553739;28;20040;-30
2022/10/25 12:04:18;;;;;;;5.28;1.38;;;;;;;18.93;67.80;96872.75;10564233;28;20036;-30
2022/10/25 12:09:32;;;;;;;4.15;1.45;;;;;;;18.94;67.61;96865.16;10547624;28;20412;-30
2022/10/25 12:14:37;;;;;;;5.07;2.00;;;;;;;18.93;67.22;96862.59;10563377;28;20417;-31
2022/10/25 12:19:45;;;;;;;8.75;2.75;;;;;;;18.87;66.49;96867.66;10565720;28;20023;-30
2022/10/25 12:24:54;;;;;;;12.38;2.13;;;;;;;18.86;66.43;96860.91;10553384;28;20035;-30
2022/10/25 12:30:03;;;;;;;5.18;1.83;;;;;;;18.84;66.18;96862.59;10567847;28;20076;-31
2022/10/25 12:35:19;;;;;;;10.55;1.60;;;;;;;18.80;66.22;96846.53;10564466;28;20091;-30
2022/10/25 12:40:21;;;;;;;5.63;1.60;;;;;;;18.78;66.06;96845.69;10552219;28;20503;-30
2022/10/25 12:45:40;;;;;;;3.25;1.65;;;;;;;18.81;66.37;96844.81;10559522;28;20043;-30
2022/10/25 12:50:52;;;;;;;4.63;1.50;;;;;;;18.82;66.51;96854.16;10556392;28;20398;-30
2022/10/25 12:56:26;;;;;;;6.75;1.35;;;;;;;18.83;66.31;96845.69;10556101;28;20105;-30
2022/10/25 13:02:08;;;;;;;11.00;1.80;;;;;;;18.92;67.65;96850.75;10561373;28;20102;-30
2022/10/25 13:07:11;;;;;;;13.05;3.30;;;;;;;18.97;67.70;96847.38;10560454;28;20031;-29
2022/10/25 13:12:14;;;;;;;14.35;2.92;;;;;;;18.97;67.15;96849.06;10561528;28;20088;-29
2022/10/25 13:17:17;;;;;;;5.85;1.75;;;;;;;18.91;66.31;96833.84;10556734;28;20421;-29
2022/10/25 13:22:29;;;;;;;8.65;2.17;;;;;;;18.90;66.13;96832.13;10555027;28;20267;-29
2022/10/25 13:27:32;;;;;;;9.50;1.60;;;;;;;18.88;66.15;96828.75;10557185;28;20062;-30
2022/10/25 13:32:34;;;;;;;21.45;3.67;;;;;;;18.87;65.88;96832.16;10562672;28;20035;-32
2022/10/25 13:37:38;;;;;;;12.77;2.15;;;;;;;18.83;64.34;96820.31;10565288;28;20417;-29
2022/10/25 13:42:42;;;;;;;4.43;1.60;;;;;;;18.82;61.63;96818.63;10553805;28;20032;-31
2022/10/25 13:47:45;;;;;;;10.70;1.70;;;;;;;18.81;64.29;96811.84;10559137;28;20028;-30
2022/10/25 13:52:58;;;;;;;6.78;1.80;;;;;;;18.81;64.75;96822.00;10557184;27;20031;-30
2022/10/25 13:58:00;;;;;;;7.45;1.80;;;;;;;18.80;64.85;96811.00;10562164;27;20385;-28
2022/10/25 14:03:11;;;;;;;4.85;1.80;;;;;;;18.82;64.58;96813.56;10549772;28;20204;-30
2022/10/25 14:08:27;;;;;;;4.25;0.80;;;;;;;18.94;59.98;96814.41;10554296;28;20031;-30
2022/10/25 14:13:43;;;;;;;3.75;0.52;;;;;;;19.01;60.88;96812.69;10552419;28;20046;-30
2022/10/25 14:18:44;;;;;;;2.75;1.05;;;;;;;18.89;61.93;96795.78;10545822;28;20024;-30
2022/10/25 14:23:48;;;;;;;3.95;1.25;;;;;;;18.93;64.06;96796.63;10559713;28;20386;-29
2022/10/25 14:28:49;;;;;;;2.25;1.02;;;;;;;18.84;64.20;96800.00;10550690;28;20027;-30
2022/10/25 14:33:52;;;;;;;5.53;1.23;;;;;;;18.84;64.54;96794.94;10559954;28;20280;-31
2022/10/25 14:38:54;;;;;;;2.88;1.33;;;;;;;18.84;64.31;96782.25;10554980;28;20338;-30
2022/10/25 14:43:55;;;;;;;4.90;1.70;;;;;;;18.84;64.20;96789.03;10552643;28;20036;-29
2022/10/25 14:48:57;;;;;;;6.80;2.30;;;;;;;18.83;64.42;96787.34;10555608;28;20044;-30
2022/10/25 14:54:18;;;;;;;6.55;2.00;;;;;;;18.84;64.33;96786.50;10558893;28;20477;-30
2022/10/25 14:59:31;;;;;;;3.33;1.38;;;;;;;18.83;64.33;96784.81;10553953;28;20500;-30
2022/10/25 15:04:45;;;;;;;8.90;4.93;;;;;;;18.80;64.41;96784.78;10548648;28;20031;-29
2022/10/25 15:09:50;;;;;;;1.67;0.70;;;;;;;18.90;61.30;96777.19;10550153;28;20027;-30
2022/10/25 15:14:52;;;;;;;2.38;0.90;;;;;;;18.99;60.79;96786.50;10548369;28;20028;-31
2022/10/25 15:20:10;;;;;;;3.03;1.75;;;;;;;18.95;60.58;96777.19;10555720;28;20039;-30
2022/10/25 15:25:23;;;;;;;5.00;2.10;;;;;;;18.93;64.64;96781.41;10555224;28;20031;-29
2022/10/25 15:30:41;;;;;;;7.55;1.77;;;;;;;18.91;64.50;96778.03;10550464;28;20016;-29
2022/10/25 15:35:50;;;;;;;5.85;2.10;;;;;;;18.87;65.25;96786.47;10550733;28;20020;-30
2022/10/25 15:40:50;;;;;;;2.90;1.80;;;;;;;18.85;65.21;96783.13;10553936;28;20032;-30
2022/10/25 15:45:52;;;;;;;5.37;2.00;;;;;;;18.80;65.31;96761.97;10565305;28;20036;-30
2022/10/25 15:50:55;;;;;;;4.75;1.95;;;;;;;18.82;65.15;96771.28;10564255;28;20281;-30
2022/10/25 15:55:55;;;;;;;4.45;1.73;;;;;;;18.82;65.19;96772.97;10563675;28;20039;-29
2022/10/25 16:00:56;;;;;;;2.83;1.33;;;;;;;18.82;65.22;96772.97;10566314;28;20425;-30
2022/10/25 16:05:56;;;;;;;7.93;2.05;;;;;;;18.83;64.60;96769.59;10558161;28;20114;-30
2022/10/25 16:10:57;;;;;;;11.90;1.83;;;;;;;18.78;64.35;96771.28;10561571;28;20030;-32
2022/10/25 16:15:58;;;;;;;7.90;2.55;;;;;;;18.95;63.36;96777.19;10558238;28;20040;-32
2022/10/25 16:20:59;;;;;;;7.22;2.45;;;;;;;19.00;63.36;96757.72;10560584;28;20036;-30
2022/10/25 16:25:59;;;;;;;7.13;1.20;;;;;;;19.02;63.60;96768.72;10565846;28;20040;-31
2022/10/25 16:31:00;;;;;;;7.05;1.50;;;;;;;18.95;64.01;96764.50;10555589;28;21121;-30
2022/10/25 16:36:00;;;;;;;7.88;1.33;;;;;;;18.93;64.17;96751.81;10562172;28;20498;-32
2022/10/25 16:41:01;;;;;;;4.80;1.30;;;;;;;18.89;64.73;96745.06;10559722;28;20121;-30
2022/10/25 16:46:01;;;;;;;3.07;1.10;;;;;;;18.85;65.06;96747.59;10562710;28;20066;-30
2022/10/25 16:51:01;;;;;;;4.50;1.20;;;;;;;18.83;65.07;96745.06;10558924;28;20024;-29
2022/10/25 16:56:02;;;;;;;4.30;0.83;;;;;;;18.82;64.90;96732.41;10556393;28;20500;-30
2022/10/25 17:01:02;;;;;;;5.60;1.53;;;;;;;18.82;65.04;96732.41;10557597;28;20501;-31
2022/10/25 17:06:04;;;;;;;9.38;1.30;;;;;;;18.81;65.16;96743.34;10539031;28;20411;-30
2022/10/25 17:11:05;;;;;;;3.88;1.38;;;;;;;18.82;64.67;96737.47;10557178;28;20028;-30
2022/10/25 17:16:07;;;;;;;18.60;2.17;;;;;;;18.78;62.30;96733.22;10551170;28;20031;-30
2022/10/25 17:21:11;;;;;;;8.27;1.48;;;;;;;18.91;65.37;96737.44;10547805;27;20505;-29
2022/10/25 17:26:12;;;;;;;9.13;1.42;;;;;;;19.01;64.89;96744.19;10548876;28;20039;-30
2022/10/25 17:31:13;;;;;;;11.57;1.67;;;;;;;19.01;64.17;96745.03;10554093;28;20040;-29
2022/10/25 17:36:17;;;;;;;8.80;1.30;;;;;;;18.97;64.24;96756.03;10544218;27;20027;-30
2022/10/25 17:41:17;;;;;;;4.35;1.23;;;;;;;18.92;64.32;96760.25;10546536;28;20680;-30
2022/10/25 17:46:20;;;;;;;3.87;1.27;;;;;;;18.88;64.69;96767.88;10540373;27;20447;-30
2022/10/25 17:51:22;;;;;;;5.57;1.10;;;;;;;18.84;64.71;96766.19;10534825;28;20034;-29
2022/10/25 17:56:24;;;;;;;3.17;1.05;;;;;;;18.77;65.06;96759.44;10534324;28;20047;-30
2022/10/25 18:01:26;;;;;;;2.17;1.00;;;;;;;18.65;65.14;96736.59;10542104;28;20127;-30
2022/10/25 18:06:27;;;;;;;5.03;1.00;;;;;;;18.79;64.94;96765.34;10537114;28;20092;-31
2022/10/25 18:11:27;;;;;;;5.30;1.35;;;;;;;18.65;65.16;96740.00;10536608;28;20089;-30
2022/10/25 18:16:29;;;;;;;2.55;0.63;;;;;;;18.77;64.78;96754.38;10551095;28;20036;-29
2022/10/25 18:21:31;;;;;;;4.88;0.98;;;;;;;18.77;64.95;96754.38;10549966;28;20164;-30
2022/10/25 18:26:33;;;;;;;5.90;1.38;;;;;;;18.93;65.93;96745.91;10549681;28;20038;-31
2022/10/25 18:31:33;;;;;;;4.40;1.20;;;;;;;19.00;65.69;96742.50;10550032;28;20102;-30
2022/10/25 18:36:34;;;;;;;3.73;1.10;;;;;;;19.02;64.80;96741.63;10548914;28;20035;-30
2022/10/25 18:41:34;;;;;;;3.40;1.17;;;;;;;18.97;64.64;96737.41;10540092;28;20509;-30
2022/10/25 18:46:35;;;;;;;7.18;1.35;;;;;;;18.91;64.29;96727.31;10556803;28;20274;-30
2022/10/25 18:51:37;;;;;;;2.53;0.93;;;;;;;18.86;64.33;96713.78;10549611;28;20030;-30
2022/10/25 18:56:38;;;;;;;1.08;0.70;;;;;;;18.77;64.48;96693.50;10551376;28;20078;-29
2022/10/25 19:01:38;;;;;;;7.83;1.00;;;;;;;18.65;65.75;96704.50;10558581;28;20024;-30
2022/10/25 19:06:39;;;;;;;10.15;1.42;;;;;;;18.81;65.63;96695.16;10552890;28;20286;-29
2022/10/25 19:11:39;;;;;;;3.83;0.90;;;;;;;18.84;64.95;96687.56;10551146;28;20028;-31
2022/10/25 19:16:41;;;;;;;2.83;0.60;;;;;;;18.85;65.38;96689.25;10559083;28;20031;-30
2022/10/25 19:21:41;;;;;;;2.10;1.45;;;;;;;18.84;64.74;96683.31;10567083;28;20289;-31
2022/10/25 19:26:43;;;;;;;4.55;1.15;;;;;;;18.85;64.76;96684.19;10558900;28;20808;-30
2022/10/25 19:31:44;;;;;;;10.30;1.00;;;;;;;18.88;65.72;96686.69;10567102;28;20027;-30
2022/10/25 19:36:44;;;;;;;5.17;1.40;;;;;;;18.95;65.88;96690.91;10557510;28;20028;-30
2022/10/25 19:41:44;;;;;;;4.17;0.90;;;;;;;18.94;66.12;96681.63;10559270;28;20028;-30
2022/10/25 19:46:45;;;;;;;4.33;1.33;;;;;;;18.94;65.47;96666.41;10567299;28;20343;-29
2022/10/25 19:51:45;;;;;;;4.87;0.83;;;;;;;18.91;64.64;96661.34;10564218;28;20301;-30
2022/10/25 19:56:46;;;;;;;1.90;0.83;;;;;;;18.88;64.66;96649.50;10564946;28;20031;-29
2022/10/25 20:01:47;;;;;;;5.07;1.17;;;;;;;18.87;64.73;96650.38;10568152;28;20032;-30
2022/10/25 20:06:48;;;;;;;2.45;0.80;;;;;;;18.86;64.70;96648.69;10564636;28;20130;-29
2022/10/25 20:11:48;;;;;;;1.20;0.82;;;;;;;18.87;64.60;96639.34;10565734;28;20401;-31
2022/10/25 20:16:49;;;;;;;1.93;0.60;;;;;;;18.86;64.77;96632.59;10559870;28;20028;-31
2022/10/25 20:21:49;;;;;;;1.57;0.70;;;;;;;18.86;64.73;96632.59;10563303;28;20334;-30
2022/10/25 20:26:50;;;;;;;2.05;0.70;;;;;;;18.79;64.81;96626.72;10552998;28;20296;-30
2022/10/25 20:31:50;;;;;;;3.28;0.73;;;;;;;18.83;65.04;96640.22;10562459;28;20118;-29
2022/10/25 20:36:51;;;;;;;5.13;0.95;;;;;;;18.84;65.76;96624.16;10564099;28;20457;-30
2022/10/25 20:41:51;;;;;;;1.80;0.90;;;;;;;18.91;65.72;96635.97;10557115;28;20123;-30
2022/10/25 20:46:52;;;;;;;1.77;0.70;;;;;;;18.94;65.63;96630.88;10564804;28;20429;-29
2022/10/25 20:51:52;;;;;;;4.03;1.00;;;;;;;18.90;65.77;96629.19;10560970;28;20035;-31
2022/10/25 20:56:52;;;;;;;2.33;0.43;;;;;;;18.88;65.07;96625.81;10558317;28;20300;-30
2022/10/25 21:01:53;;;;;;;2.30;0.63;;;;;;;18.80;65.36;96623.31;10563498;28;20278;-30
2022/10/25 21:06:53;;;;;;;1.20;0.53;;;;;;;18.85;65.16;96633.44;10559826;28;20115;-30
2022/10/25 21:11:53;;;;;;;1.60;0.67;;;;;;;18.86;65.46;96642.75;10564531;28;20035;-30
2022/10/25 21:16:54;;;;;;;4.07;0.73;;;;;;;18.85;65.30;96633.44;10561178;28;20155;-29
2022/10/25 21:21:54;;;;;;;4.10;0.70;;;;;;;18.85;65.25;96633.44;10565252;28;20044;-29
2022/10/25 21:26:54;;;;;;;1.77;0.70;;;;;;;18.84;64.94;96639.38;10556679;28;20301;-30
2022/10/25 21:31:55;;;;;;;1.23;0.67;;;;;;;18.83;65.58;96628.38;10559194;28;20040;-29
2022/10/25 21:36:55;;;;;;;2.80;0.50;;;;;;;18.83;65.09;96622.47;10556640;28;20105;-30
2022/10/25 21:41:56;;;;;;;1.93;0.70;;;;;;;18.83;65.92;96617.41;10553955;28;20035;-31
2022/10/25 21:46:56;;;;;;;2.55;0.88;;;;;;;18.91;65.85;96623.28;10561203;28;20032;-30
2022/10/25 21:51:56;;;;;;;2.97;1.07;;;;;;;18.94;65.51;96620.75;10552308;28;20036;-31
2022/10/25 21:56:57;;;;;;;1.57;0.77;;;;;;;18.86;65.11;96615.69;10562211;28;20032;-30
2022/10/25 22:01:57;;;;;;;2.77;0.70;;;;;;;18.86;65.32;96618.25;10559157;28;20329;-30
2022/10/25 22:06:58;;;;;;;1.25;0.88;;;;;;;18.84;65.38;96614.00;10557921;28;20382;-30
2022/10/25 22:11:59;;;;;;;1.47;0.53;;;;;;;18.73;65.49;96591.22;10553820;28;20039;-29
2022/10/25 22:16:59;;;;;;;2.22;0.60;;;;;;;18.84;65.43;96604.69;10556892;28;20778;-30
2022/10/25 22:21:59;;;;;;;2.70;0.90;;;;;;;18.84;65.61;96596.25;10561006;28;20031;-29
2022/10/25 22:27:00;;;;;;;0.83;0.60;;;;;;;18.84;65.21;96593.72;10551540;28;20294;-30
2022/10/25 22:32:00;;;;;;;1.90;0.60;;;;;;;18.84;65.37;96588.66;10559326;28;20478;-31
2022/10/25 22:37:00;;;;;;;2.40;0.70;;;;;;;18.84;65.25;96596.25;10557521;28;20043;-29
2022/10/25 22:42:02;;;;;;;2.28;0.90;;;;;;;18.82;65.23;96596.25;10557786;28;20433;-30
2022/10/25 22:47:02;;;;;;;2.72;0.88;;;;;;;18.85;65.80;96597.94;10560544;28;20066;-30
2022/10/25 22:52:03;;;;;;;2.17;0.67;;;;;;;18.89;65.92;96587.78;10565457;28;20123;-29
2022/10/25 22:57:03;;;;;;;2.00;0.65;;;;;;;18.91;65.60;96587.78;10569921;28;20535;-30
2022/10/25 23:02:03;;;;;;;1.57;0.57;;;;;;;18.83;65.39;96587.78;10565368;28;20035;-29
2022/10/25 23:07:04;;;;;;;1.97;0.60;;;;;;;18.84;65.36;96603.88;10569015;28;20463;-30
2022/10/25 23:12:05;;;;;;;1.37;0.90;;;;;;;18.83;65.24;96602.19;10559532;28;20059;-30
2022/10/25 23:17:05;;;;;;;1.52;0.52;;;;;;;18.83;65.23;96614.88;10568525;28;20372;-30
2022/10/25 23:22:05;;;;;;;2.87;1.00;;;;;;;18.83;65.31;96612.31;10564369;28;20032;-30
2022/10/25 23:27:06;;;;;;;1.83;0.57;;;;;;;18.77;65.35;96603.03;10559210;28;20040;-30
2022/10/25 23:32:06;;;;;;;1.17;0.67;;;;;;;18.73;65.32;96588.69;10572004;28;20161;-29
2022/10/25 23:37:06;;;;;;;2.27;0.50;;;;;;;18.81;65.39;96603.84;10558590;28;20342;-29